ADDS TAF Board (Experimental) INFO Settings
IDs: Format: Expanded Condensed

KMIA - Miami Intl, FL, US

Issued at 1720 UTC 30 Jul 2015
Updated at: 1809 UTC 30 Jul 2015
Time1753Z 30/19Z 30/20Z 30/21Z 30/22Z 30/23Z 31/00Z 31/01Z 31/02Z 31/03Z 31/04Z 31/05Z 31/06Z 31/07Z
Type OBS PRVL PRVL PRVL PRVL PRVL PRVL PRVL PRVL PRVL PRVL PRVL PRVL PRVL
VIS 10 >6 >6 >6 >6 >6 >6 >6 >6 >6 >6 >6 >6 >6
CIG 170 35 35 35 35 35 35 -- -- -- -- -- -- --
Cover BKN BKN BKN BKN BKN BKN BKN SCT SCT SCT SCT SCT SCT SCT
FltCat VFR VFR VFR VFR VFR VFR VFR VFR VFR VFR VFR VFR VFR VFR
WX -- VCSH VCSH VCSH VCSH VCSH VCSH -- -- -- -- -- -- --
WDir 230 220 220 220 220 220 220 VRB VRB VRB VRB VRB VRB VRB
WSpd 9 9 9 9 9 9 9 0 0 0 0 0 0 0
WGst -- -- -- -- -- -- -- -- -- -- -- -- -- --
R08/26
XWnd -5 -7 -7 -7 -7 -7 -7 VRB VRB VRB VRB VRB VRB VRB
HWnd -7 -6 -6 -6 -6 -6 -6 VRB VRB VRB VRB VRB VRB VRB
R09/27
XWnd -5 -7 -7 -7 -7 -7 -7 VRB VRB VRB VRB VRB VRB VRB
HWnd -7 -6 -6 -6 -6 -6 -6 VRB VRB VRB VRB VRB VRB VRB
R12/30
XWnd -8 -9 -9 -9 -9 -9 -9 VRB VRB VRB VRB VRB VRB VRB
HWnd -3 -2 -2 -2 -2 -2 -2 VRB VRB VRB VRB VRB VRB VRB

NOTE: TEMPO conditions in [brackets]. Keep in mind TEMPO conditions might be better (lower impact) than prevailing conditions.

Raw TAF
KMIA 301720Z 3018/3118 22009KT P6SM VCSH BKN035
  FM310100 00000KT P6SM SCT035
  FM311400 19006KT P6SM SCT035


Raw METAR
KMIA 301753Z 23009KT 10SM FEW050 BKN170 BKN300 33/19 A3001 RMK AO2 SLP163 T03330189 10339 20272 58013
KMIA 301653Z COR 25005KT 10SM FEW048 FEW150 BKN180 BKN300 33/19 A3003 RMK AO2 SLP169 CB DSNT NE MOV E T03330189
KMIA 301553Z 20008KT 10SM FEW042 BKN190 BKN260 33/22 A3004 RMK AO2 SLP174 T03280217

METAR Board
Radar Display
Forecast Discussion

TAF Board Legend

Potential Impact
Threat None Slight Moderate High
Visibility (sm) ≥5.1 5.1>X≥3 3>X≥1 <1
Ceiling (100 ft) ≥30.1 30.1>X≥10 10>X≥5 <5
Wind Speed (kt) <10 10≤X<20 20≤X<30 ≥30
Wind Gust (kt) <15 15≤X<25 25≤X<35 ≥35
Weather No Wx Reported VCTS,-TS,-FZRA,SN TS,FZRA +TS,+FZRA,+SN